sensor_id;sensor_type;location;lat;lon;timestamp;temperature;humidity
51908;DHT22;39320;53.214;6.556;2022-07-18T00:00:08;19.90;99.90
51908;DHT22;39320;53.214;6.556;2022-07-18T00:02:34;20.00;99.90
51908;DHT22;39320;53.214;6.556;2022-07-18T00:05:00;19.90;99.90
51908;DHT22;39320;53.214;6.556;2022-07-18T00:07:25;19.90;99.90
51908;DHT22;39320;53.214;6.556;2022-07-18T00:09:51;19.90;99.90
51908;DHT22;39320;53.214;6.556;2022-07-18T00:12:17;19.90;99.90
51908;DHT22;39320;53.214;6.556;2022-07-18T00:14:43;19.90;99.90
51908;DHT22;39320;53.214;6.556;2022-07-18T00:17:09;19.80;99.90
51908;DHT22;39320;53.214;6.556;2022-07-18T00:19:35;19.80;99.90
51908;DHT22;39320;53.214;6.556;2022-07-18T00:22:01;19.80;99.90
51908;DHT22;39320;53.214;6.556;2022-07-18T00:24:27;19.80;99.90
51908;DHT22;39320;53.214;6.556;2022-07-18T00:26:53;19.80;99.90
51908;DHT22;39320;53.214;6.556;2022-07-18T00:29:19;19.80;99.90
51908;DHT22;39320;53.214;6.556;2022-07-18T00:31:45;19.70;99.90
51908;DHT22;39320;53.214;6.556;2022-07-18T00:34:10;19.80;99.90
51908;DHT22;39320;53.214;6.556;2022-07-18T00:36:36;19.80;99.90
51908;DHT22;39320;53.214;6.556;2022-07-18T00:39:03;19.70;99.90
51908;DHT22;39320;53.214;6.556;2022-07-18T00:41:28;19.80;99.90
51908;DHT22;39320;53.214;6.556;2022-07-18T00:43:54;19.70;99.90
51908;DHT22;39320;53.214;6.556;2022-07-18T00:46:24;19.80;99.90
51908;DHT22;39320;53.214;6.556;2022-07-18T00:48:50;19.80;99.90
51908;DHT22;39320;53.214;6.556;2022-07-18T00:51:17;19.70;99.90
51908;DHT22;39320;53.214;6.556;2022-07-18T00:53:44;19.70;99.90
51908;DHT22;39320;53.214;6.556;2022-07-18T00:56:11;19.70;99.90
51908;DHT22;39320;53.214;6.556;2022-07-18T00:58:37;19.70;99.90
51908;DHT22;39320;53.214;6.556;2022-07-18T01:01:04;19.60;99.90
51908;DHT22;39320;53.214;6.556;2022-07-18T01:03:48;19.70;99.90
51908;DHT22;39320;53.214;6.556;2022-07-18T01:06:14;19.60;99.90
51908;DHT22;39320;53.214;6.556;2022-07-18T01:08:42;19.60;99.90
51908;DHT22;39320;53.214;6.556;2022-07-18T01:11:09;19.60;99.90
51908;DHT22;39320;53.214;6.556;2022-07-18T01:13:35;19.70;99.90
51908;DHT22;39320;53.214;6.556;2022-07-18T01:16:01;19.70;99.90
51908;DHT22;39320;53.214;6.556;2022-07-18T01:18:27;19.60;99.90
51908;DHT22;39320;53.214;6.556;2022-07-18T01:20:53;19.60;99.90
51908;DHT22;39320;53.214;6.556;2022-07-18T01:23:18;19.50;99.90
51908;DHT22;39320;53.214;6.556;2022-07-18T01:25:44;19.50;99.90
51908;DHT22;39320;53.214;6.556;2022-07-18T01:28:10;19.40;99.90
51908;DHT22;39320;53.214;6.556;2022-07-18T01:30:36;19.50;99.90
51908;DHT22;39320;53.214;6.556;2022-07-18T01:33:02;19.50;99.90
51908;DHT22;39320;53.214;6.556;2022-07-18T01:35:29;19.50;99.90
51908;DHT22;39320;53.214;6.556;2022-07-18T01:37:57;19.50;99.90
51908;DHT22;39320;53.214;6.556;2022-07-18T01:40:24;19.40;99.90
51908;DHT22;39320;53.214;6.556;2022-07-18T01:42:50;19.40;99.90
51908;DHT22;39320;53.214;6.556;2022-07-18T01:45:17;19.40;99.90
51908;DHT22;39320;53.214;6.556;2022-07-18T01:47:42;19.40;99.90
51908;DHT22;39320;53.214;6.556;2022-07-18T01:50:10;19.30;99.90
51908;DHT22;39320;53.214;6.556;2022-07-18T01:52:36;19.30;99.90
51908;DHT22;39320;53.214;6.556;2022-07-18T01:55:03;19.30;99.90
51908;DHT22;39320;53.214;6.556;2022-07-18T01:57:29;19.30;99.90
51908;DHT22;39320;53.214;6.556;2022-07-18T01:59:55;19.20;99.90
51908;DHT22;39320;53.214;6.556;2022-07-18T02:02:21;19.30;99.90
51908;DHT22;39320;53.214;6.556;2022-07-18T02:04:47;19.20;99.90
51908;DHT22;39320;53.214;6.556;2022-07-18T02:07:32;19.20;99.90
51908;DHT22;39320;53.214;6.556;2022-07-18T02:09:59;19.20;99.90
51908;DHT22;39320;53.214;6.556;2022-07-18T02:12:25;19.10;99.90
51908;DHT22;39320;53.214;6.556;2022-07-18T02:14:51;19.10;99.90
51908;DHT22;39320;53.214;6.556;2022-07-18T02:17:17;19.10;99.90
51908;DHT22;39320;53.214;6.556;2022-07-18T02:19:45;19.10;99.90
51908;DHT22;39320;53.214;6.556;2022-07-18T02:22:11;19.10;99.90
51908;DHT22;39320;53.214;6.556;2022-07-18T02:24:37;19.10;99.90
51908;DHT22;39320;53.214;6.556;2022-07-18T02:27:03;19.10;99.90
51908;DHT22;39320;53.214;6.556;2022-07-18T02:29:29;19.10;99.90
51908;DHT22;39320;53.214;6.556;2022-07-18T02:31:56;19.10;99.90
51908;DHT22;39320;53.214;6.556;2022-07-18T02:34:21;19.10;99.90
51908;DHT22;39320;53.214;6.556;2022-07-18T02:36:47;19.10;99.90
51908;DHT22;39320;53.214;6.556;2022-07-18T02:39:16;19.00;99.90
51908;DHT22;39320;53.214;6.556;2022-07-18T02:41:41;19.00;99.90
51908;DHT22;39320;53.214;6.556;2022-07-18T02:44:07;19.00;99.90
51908;DHT22;39320;53.214;6.556;2022-07-18T02:46:33;19.00;99.90
51908;DHT22;39320;53.214;6.556;2022-07-18T02:48:59;19.00;99.90
51908;DHT22;39320;53.214;6.556;2022-07-18T02:51:24;19.00;99.90
51908;DHT22;39320;53.214;6.556;2022-07-18T02:53:50;18.90;99.90
51908;DHT22;39320;53.214;6.556;2022-07-18T02:56:16;18.90;99.90
51908;DHT22;39320;53.214;6.556;2022-07-18T02:58:41;18.90;99.90
51908;DHT22;39320;53.214;6.556;2022-07-18T03:01:07;19.00;99.90
51908;DHT22;39320;53.214;6.556;2022-07-18T03:03:33;19.00;99.90
51908;DHT22;39320;53.214;6.556;2022-07-18T03:05:58;18.90;99.90
51908;DHT22;39320;53.214;6.556;2022-07-18T03:08:24;19.00;99.90
51908;DHT22;39320;53.214;6.556;2022-07-18T03:10:50;19.00;99.90
51908;DHT22;39320;53.214;6.556;2022-07-18T03:13:16;18.90;99.90
51908;DHT22;39320;53.214;6.556;2022-07-18T03:15:41;19.00;99.90
51908;DHT22;39320;53.214;6.556;2022-07-18T03:18:07;18.90;99.90
51908;DHT22;39320;53.214;6.556;2022-07-18T03:20:32;18.90;99.90
51908;DHT22;39320;53.214;6.556;2022-07-18T03:22:58;18.80;99.90
51908;DHT22;39320;53.214;6.556;2022-07-18T03:25:24;18.90;99.90
51908;DHT22;39320;53.214;6.556;2022-07-18T03:27:50;18.80;99.90
51908;DHT22;39320;53.214;6.556;2022-07-18T03:30:16;18.80;99.90
51908;DHT22;39320;53.214;6.556;2022-07-18T03:32:42;18.70;99.90
51908;DHT22;39320;53.214;6.556;2022-07-18T03:35:08;18.70;99.90
51908;DHT22;39320;53.214;6.556;2022-07-18T03:37:34;18.70;99.90
51908;DHT22;39320;53.214;6.556;2022-07-18T03:39:59;18.70;99.90
51908;DHT22;39320;53.214;6.556;2022-07-18T03:42:25;18.70;99.90
51908;DHT22;39320;53.214;6.556;2022-07-18T03:44:51;18.70;99.90
51908;DHT22;39320;53.214;6.556;2022-07-18T03:47:16;18.70;99.90
51908;DHT22;39320;53.214;6.556;2022-07-18T03:49:42;18.70;99.90
51908;DHT22;39320;53.214;6.556;2022-07-18T03:52:08;18.70;99.90
51908;DHT22;39320;53.214;6.556;2022-07-18T03:54:33;18.70;99.90
51908;DHT22;39320;53.214;6.556;2022-07-18T03:56:59;18.70;99.90
51908;DHT22;39320;53.214;6.556;2022-07-18T03:59:25;18.70;99.90
51908;DHT22;39320;53.214;6.556;2022-07-18T04:01:50;18.70;99.90
51908;DHT22;39320;53.214;6.556;2022-07-18T04:04:16;18.60;99.90
51908;DHT22;39320;53.214;6.556;2022-07-18T04:06:42;18.60;99.90
51908;DHT22;39320;53.214;6.556;2022-07-18T04:09:07;18.60;99.90
51908;DHT22;39320;53.214;6.556;2022-07-18T04:11:33;18.60;99.90
51908;DHT22;39320;53.214;6.556;2022-07-18T04:13:59;18.60;99.90
51908;DHT22;39320;53.214;6.556;2022-07-18T04:16:24;18.60;99.90
51908;DHT22;39320;53.214;6.556;2022-07-18T04:18:50;18.60;99.90
51908;DHT22;39320;53.214;6.556;2022-07-18T04:21:16;18.60;99.90
51908;DHT22;39320;53.214;6.556;2022-07-18T04:23:42;18.60;99.90
51908;DHT22;39320;53.214;6.556;2022-07-18T04:26:08;18.60;99.90
51908;DHT22;39320;53.214;6.556;2022-07-18T04:28:34;18.50;99.90
51908;DHT22;39320;53.214;6.556;2022-07-18T04:31:00;18.50;99.90
51908;DHT22;39320;53.214;6.556;2022-07-18T04:33:27;18.60;99.90
51908;DHT22;39320;53.214;6.556;2022-07-18T04:35:52;18.60;99.90
51908;DHT22;39320;53.214;6.556;2022-07-18T04:38:18;18.60;99.90
51908;DHT22;39320;53.214;6.556;2022-07-18T04:40:44;18.70;99.90
51908;DHT22;39320;53.214;6.556;2022-07-18T04:43:10;18.70;99.90
51908;DHT22;39320;53.214;6.556;2022-07-18T04:45:36;18.70;99.90
51908;DHT22;39320;53.214;6.556;2022-07-18T04:48:03;18.60;99.90
51908;DHT22;39320;53.214;6.556;2022-07-18T04:50:29;18.70;99.90
51908;DHT22;39320;53.214;6.556;2022-07-18T04:52:56;18.70;99.90
51908;DHT22;39320;53.214;6.556;2022-07-18T04:55:23;18.60;99.90
51908;DHT22;39320;53.214;6.556;2022-07-18T04:57:50;18.70;99.90
51908;DHT22;39320;53.214;6.556;2022-07-18T05:00:18;18.70;99.90
51908;DHT22;39320;53.214;6.556;2022-07-18T05:02:47;18.70;99.90
51908;DHT22;39320;53.214;6.556;2022-07-18T05:05:14;18.70;99.90
51908;DHT22;39320;53.214;6.556;2022-07-18T05:07:41;18.70;99.90
51908;DHT22;39320;53.214;6.556;2022-07-18T05:10:08;18.60;99.90
51908;DHT22;39320;53.214;6.556;2022-07-18T05:12:38;18.60;99.90
51908;DHT22;39320;53.214;6.556;2022-07-18T05:15:06;18.70;99.90
51908;DHT22;39320;53.214;6.556;2022-07-18T05:17:32;18.70;99.90
51908;DHT22;39320;53.214;6.556;2022-07-18T05:19:58;18.70;99.90
51908;DHT22;39320;53.214;6.556;2022-07-18T05:22:23;18.70;99.90
51908;DHT22;39320;53.214;6.556;2022-07-18T05:24:49;18.70;99.90
51908;DHT22;39320;53.214;6.556;2022-07-18T05:27:15;18.80;99.90
51908;DHT22;39320;53.214;6.556;2022-07-18T05:29:41;18.80;99.90
51908;DHT22;39320;53.214;6.556;2022-07-18T05:32:07;18.80;99.90
51908;DHT22;39320;53.214;6.556;2022-07-18T05:34:33;18.90;99.90
51908;DHT22;39320;53.214;6.556;2022-07-18T05:36:59;18.90;99.90
51908;DHT22;39320;53.214;6.556;2022-07-18T05:39:25;18.90;99.90
51908;DHT22;39320;53.214;6.556;2022-07-18T05:41:52;18.90;99.90
51908;DHT22;39320;53.214;6.556;2022-07-18T05:44:17;18.90;99.90
51908;DHT22;39320;53.214;6.556;2022-07-18T05:46:48;18.90;99.90
51908;DHT22;39320;53.214;6.556;2022-07-18T05:49:14;18.90;99.90
51908;DHT22;39320;53.214;6.556;2022-07-18T05:51:41;18.90;99.90
51908;DHT22;39320;53.214;6.556;2022-07-18T05:54:07;18.90;99.90
51908;DHT22;39320;53.214;6.556;2022-07-18T05:56:33;19.00;99.90
51908;DHT22;39320;53.214;6.556;2022-07-18T05:58:58;19.00;99.90
51908;DHT22;39320;53.214;6.556;2022-07-18T06:01:24;19.00;99.80
51908;DHT22;39320;53.214;6.556;2022-07-18T06:03:50;19.00;99.60
51908;DHT22;39320;53.214;6.556;2022-07-18T06:06:16;19.00;99.40
51908;DHT22;39320;53.214;6.556;2022-07-18T06:08:44;19.10;99.10
51908;DHT22;39320;53.214;6.556;2022-07-18T06:11:10;19.10;98.80
51908;DHT22;39320;53.214;6.556;2022-07-18T06:13:38;19.10;98.60
51908;DHT22;39320;53.214;6.556;2022-07-18T06:16:05;19.10;98.50
51908;DHT22;39320;53.214;6.556;2022-07-18T06:18:32;19.20;98.20
51908;DHT22;39320;53.214;6.556;2022-07-18T06:21:01;19.20;98.00
51908;DHT22;39320;53.214;6.556;2022-07-18T06:23:26;19.30;97.60
51908;DHT22;39320;53.214;6.556;2022-07-18T06:25:52;19.30;97.20
51908;DHT22;39320;53.214;6.556;2022-07-18T06:28:18;19.40;96.90
51908;DHT22;39320;53.214;6.556;2022-07-18T06:30:43;19.40;96.50
51908;DHT22;39320;53.214;6.556;2022-07-18T06:33:09;19.50;96.10
51908;DHT22;39320;53.214;6.556;2022-07-18T06:35:36;19.50;95.70
51908;DHT22;39320;53.214;6.556;2022-07-18T06:38:01;19.60;95.50
51908;DHT22;39320;53.214;6.556;2022-07-18T06:40:27;19.60;95.20
51908;DHT22;39320;53.214;6.556;2022-07-18T06:42:53;19.70;94.80
51908;DHT22;39320;53.214;6.556;2022-07-18T06:45:19;19.70;94.60
51908;DHT22;39320;53.214;6.556;2022-07-18T06:47:45;19.70;94.20
51908;DHT22;39320;53.214;6.556;2022-07-18T06:50:12;19.70;94.10
51908;DHT22;39320;53.214;6.556;2022-07-18T06:52:40;19.80;94.00
51908;DHT22;39320;53.214;6.556;2022-07-18T06:55:06;19.90;93.80
51908;DHT22;39320;53.214;6.556;2022-07-18T06:57:32;19.90;93.80
51908;DHT22;39320;53.214;6.556;2022-07-18T06:59:58;19.90;93.70
51908;DHT22;39320;53.214;6.556;2022-07-18T07:02:24;19.90;93.60
51908;DHT22;39320;53.214;6.556;2022-07-18T07:04:49;19.90;93.40
51908;DHT22;39320;53.214;6.556;2022-07-18T07:07:15;20.00;93.60
51908;DHT22;39320;53.214;6.556;2022-07-18T07:09:41;20.00;93.30
51908;DHT22;39320;53.214;6.556;2022-07-18T07:12:06;20.00;93.40
51908;DHT22;39320;53.214;6.556;2022-07-18T07:14:32;20.00;93.30
51908;DHT22;39320;53.214;6.556;2022-07-18T07:16:58;20.10;93.30
51908;DHT22;39320;53.214;6.556;2022-07-18T07:19:24;20.10;93.30
51908;DHT22;39320;53.214;6.556;2022-07-18T07:21:50;20.10;93.20
51908;DHT22;39320;53.214;6.556;2022-07-18T07:24:15;20.10;93.40
51908;DHT22;39320;53.214;6.556;2022-07-18T07:26:41;20.20;93.50
51908;DHT22;39320;53.214;6.556;2022-07-18T07:29:07;20.20;93.80
51908;DHT22;39320;53.214;6.556;2022-07-18T07:31:32;20.20;93.90
51908;DHT22;39320;53.214;6.556;2022-07-18T07:33:58;20.30;93.90
51908;DHT22;39320;53.214;6.556;2022-07-18T07:36:24;20.40;93.80
51908;DHT22;39320;53.214;6.556;2022-07-18T07:38:50;20.40;94.10
51908;DHT22;39320;53.214;6.556;2022-07-18T07:41:15;20.50;94.50
51908;DHT22;39320;53.214;6.556;2022-07-18T07:43:41;20.50;94.20
51908;DHT22;39320;53.214;6.556;2022-07-18T07:46:07;20.50;94.00
51908;DHT22;39320;53.214;6.556;2022-07-18T07:48:33;20.60;93.90
51908;DHT22;39320;53.214;6.556;2022-07-18T07:50:59;20.70;94.00
51908;DHT22;39320;53.214;6.556;2022-07-18T07:53:24;20.70;94.10
51908;DHT22;39320;53.214;6.556;2022-07-18T07:55:50;20.70;94.10
51908;DHT22;39320;53.214;6.556;2022-07-18T07:58:16;20.80;94.00
51908;DHT22;39320;53.214;6.556;2022-07-18T08:00:42;20.80;93.90
51908;DHT22;39320;53.214;6.556;2022-07-18T08:03:07;20.90;93.70
51908;DHT22;39320;53.214;6.556;2022-07-18T08:05:36;20.90;93.50
51908;DHT22;39320;53.214;6.556;2022-07-18T08:08:04;21.00;93.10
51908;DHT22;39320;53.214;6.556;2022-07-18T08:10:30;21.10;93.10
51908;DHT22;39320;53.214;6.556;2022-07-18T08:12:56;21.10;92.50
51908;DHT22;39320;53.214;6.556;2022-07-18T08:15:22;21.10;92.10
51908;DHT22;39320;53.214;6.556;2022-07-18T08:17:50;21.20;92.00
51908;DHT22;39320;53.214;6.556;2022-07-18T08:20:16;21.20;91.90
51908;DHT22;39320;53.214;6.556;2022-07-18T08:23:04;21.20;91.80
51908;DHT22;39320;53.214;6.556;2022-07-18T08:25:32;21.30;92.00
51908;DHT22;39320;53.214;6.556;2022-07-18T08:27:59;21.30;92.10
51908;DHT22;39320;53.214;6.556;2022-07-18T08:30:25;21.40;92.10
51908;DHT22;39320;53.214;6.556;2022-07-18T08:32:51;21.50;92.10
51908;DHT22;39320;53.214;6.556;2022-07-18T08:35:17;21.50;92.00
51908;DHT22;39320;53.214;6.556;2022-07-18T08:37:43;21.60;91.80
51908;DHT22;39320;53.214;6.556;2022-07-18T08:40:09;21.60;91.50
51908;DHT22;39320;53.214;6.556;2022-07-18T08:42:35;21.70;91.20
51908;DHT22;39320;53.214;6.556;2022-07-18T08:45:02;21.80;90.90
51908;DHT22;39320;53.214;6.556;2022-07-18T08:47:29;21.80;90.40
51908;DHT22;39320;53.214;6.556;2022-07-18T08:49:55;21.90;89.30
51908;DHT22;39320;53.214;6.556;2022-07-18T08:52:21;22.00;89.10
51908;DHT22;39320;53.214;6.556;2022-07-18T08:54:47;22.00;88.60
51908;DHT22;39320;53.214;6.556;2022-07-18T08:57:17;22.00;88.10
51908;DHT22;39320;53.214;6.556;2022-07-18T08:59:43;22.00;88.00
51908;DHT22;39320;53.214;6.556;2022-07-18T09:02:08;22.00;87.70
51908;DHT22;39320;53.214;6.556;2022-07-18T09:04:39;22.00;87.70
51908;DHT22;39320;53.214;6.556;2022-07-18T09:07:06;22.10;87.50
51908;DHT22;39320;53.214;6.556;2022-07-18T09:09:35;22.10;87.10
51908;DHT22;39320;53.214;6.556;2022-07-18T09:12:06;22.10;86.40
51908;DHT22;39320;53.214;6.556;2022-07-18T09:14:39;22.10;86.10
51908;DHT22;39320;53.214;6.556;2022-07-18T09:17:11;22.10;85.80
51908;DHT22;39320;53.214;6.556;2022-07-18T09:19:39;22.10;85.80
51908;DHT22;39320;53.214;6.556;2022-07-18T09:22:13;22.10;85.80
51908;DHT22;39320;53.214;6.556;2022-07-18T09:24:57;22.20;86.10
51908;DHT22;39320;53.214;6.556;2022-07-18T09:27:47;22.20;85.90
51908;DHT22;39320;53.214;6.556;2022-07-18T09:35:36;22.20;86.10
51908;DHT22;39320;53.214;6.556;2022-07-18T09:38:08;22.30;86.00
51908;DHT22;39320;53.214;6.556;2022-07-18T09:40:39;22.30;85.70
51908;DHT22;39320;53.214;6.556;2022-07-18T09:43:10;22.40;85.80
51908;DHT22;39320;53.214;6.556;2022-07-18T09:45:42;22.40;85.60
51908;DHT22;39320;53.214;6.556;2022-07-18T09:48:13;22.40;84.90
51908;DHT22;39320;53.214;6.556;2022-07-18T09:53:27;22.60;81.40
51908;DHT22;39320;53.214;6.556;2022-07-18T09:55:56;22.50;81.30
51908;DHT22;39320;53.214;6.556;2022-07-18T09:58:31;22.60;81.00
51908;DHT22;39320;53.214;6.556;2022-07-18T10:00:58;22.60;81.10
51908;DHT22;39320;53.214;6.556;2022-07-18T10:03:25;22.70;81.80
51908;DHT22;39320;53.214;6.556;2022-07-18T10:05:54;22.70;81.80
51908;DHT22;39320;53.214;6.556;2022-07-18T10:08:22;22.80;78.20
51908;DHT22;39320;53.214;6.556;2022-07-18T10:10:50;22.90;78.00
51908;DHT22;39320;53.214;6.556;2022-07-18T10:13:17;22.90;77.10
51908;DHT22;39320;53.214;6.556;2022-07-18T10:15:45;22.90;76.90
51908;DHT22;39320;53.214;6.556;2022-07-18T10:18:17;23.00;76.50
51908;DHT22;39320;53.214;6.556;2022-07-18T10:21:10;23.00;75.60
51908;DHT22;39320;53.214;6.556;2022-07-18T10:23:40;23.00;75.80
51908;DHT22;39320;53.214;6.556;2022-07-18T10:31:32;23.30;73.80
51908;DHT22;39320;53.214;6.556;2022-07-18T10:39:33;23.40;73.50
51908;DHT22;39320;53.214;6.556;2022-07-18T11:00:24;23.60;68.00
51908;DHT22;39320;53.214;6.556;2022-07-18T11:03:08;23.60;68.80
51908;DHT22;39320;53.214;6.556;2022-07-18T11:05:35;23.70;66.40
51908;DHT22;39320;53.214;6.556;2022-07-18T11:16:18;23.80;63.80
51908;DHT22;39320;53.214;6.556;2022-07-18T11:21:26;23.90;64.20
51908;DHT22;39320;53.214;6.556;2022-07-18T11:23:59;24.10;60.00
51908;DHT22;39320;53.214;6.556;2022-07-18T11:26:26;24.00;61.70
51908;DHT22;39320;53.214;6.556;2022-07-18T11:31:29;24.10;61.80
51908;DHT22;39320;53.214;6.556;2022-07-18T11:33:55;24.20;62.20
51908;DHT22;39320;53.214;6.556;2022-07-18T11:36:28;24.30;62.50
51908;DHT22;39320;53.214;6.556;2022-07-18T11:38:57;24.30;61.90
51908;DHT22;39320;53.214;6.556;2022-07-18T11:41:24;24.30;61.30
51908;DHT22;39320;53.214;6.556;2022-07-18T11:43:51;24.30;61.10
51908;DHT22;39320;53.214;6.556;2022-07-18T11:46:19;24.40;60.90
51908;DHT22;39320;53.214;6.556;2022-07-18T11:48:47;24.40;61.10
51908;DHT22;39320;53.214;6.556;2022-07-18T11:51:15;24.50;60.80
51908;DHT22;39320;53.214;6.556;2022-07-18T11:53:49;24.40;60.70
51908;DHT22;39320;53.214;6.556;2022-07-18T11:56:15;24.50;60.70
51908;DHT22;39320;53.214;6.556;2022-07-18T11:58:42;24.50;60.80
51908;DHT22;39320;53.214;6.556;2022-07-18T12:01:09;24.60;60.40
51908;DHT22;39320;53.214;6.556;2022-07-18T12:03:36;24.60;59.90
51908;DHT22;39320;53.214;6.556;2022-07-18T12:06:20;24.60;59.60
51908;DHT22;39320;53.214;6.556;2022-07-18T12:08:48;24.70;60.10
51908;DHT22;39320;53.214;6.556;2022-07-18T12:16:41;24.90;59.00
51908;DHT22;39320;53.214;6.556;2022-07-18T12:21:46;24.90;58.90
51908;DHT22;39320;53.214;6.556;2022-07-18T12:27:23;25.20;58.00
51908;DHT22;39320;53.214;6.556;2022-07-18T12:30:11;25.10;57.90
51908;DHT22;39320;53.214;6.556;2022-07-18T12:35:12;25.20;57.40
51908;DHT22;39320;53.214;6.556;2022-07-18T12:37:39;25.20;57.20
51908;DHT22;39320;53.214;6.556;2022-07-18T12:40:10;25.30;56.10
51908;DHT22;39320;53.214;6.556;2022-07-18T12:42:38;25.40;56.40
51908;DHT22;39320;53.214;6.556;2022-07-18T12:45:05;25.50;56.20
51908;DHT22;39320;53.214;6.556;2022-07-18T12:47:31;25.50;56.40
51908;DHT22;39320;53.214;6.556;2022-07-18T12:49:57;25.60;56.70
51908;DHT22;39320;53.214;6.556;2022-07-18T12:52:23;25.60;56.80
51908;DHT22;39320;53.214;6.556;2022-07-18T12:54:49;25.60;56.30
51908;DHT22;39320;53.214;6.556;2022-07-18T12:57:15;25.70;56.40
51908;DHT22;39320;53.214;6.556;2022-07-18T12:59:41;25.80;56.20
51908;DHT22;39320;53.214;6.556;2022-07-18T13:02:07;25.80;55.70
51908;DHT22;39320;53.214;6.556;2022-07-18T13:04:33;25.80;55.60
51908;DHT22;39320;53.214;6.556;2022-07-18T13:06:59;25.80;56.00
51908;DHT22;39320;53.214;6.556;2022-07-18T13:09:24;25.90;55.90
51908;DHT22;39320;53.214;6.556;2022-07-18T13:11:50;25.80;55.50
51908;DHT22;39320;53.214;6.556;2022-07-18T13:14:17;25.80;55.50
51908;DHT22;39320;53.214;6.556;2022-07-18T13:16:43;25.70;55.00
51908;DHT22;39320;53.214;6.556;2022-07-18T13:19:14;25.70;54.40
51908;DHT22;39320;53.214;6.556;2022-07-18T13:21:40;25.70;53.00
51908;DHT22;39320;53.214;6.556;2022-07-18T13:24:07;25.70;52.10
51908;DHT22;39320;53.214;6.556;2022-07-18T13:26:32;25.70;51.70
51908;DHT22;39320;53.214;6.556;2022-07-18T13:28:58;25.80;51.20
51908;DHT22;39320;53.214;6.556;2022-07-18T13:31:24;25.90;51.00
51908;DHT22;39320;53.214;6.556;2022-07-18T13:33:50;25.90;51.40
51908;DHT22;39320;53.214;6.556;2022-07-18T13:36:17;25.80;51.40
51908;DHT22;39320;53.214;6.556;2022-07-18T13:38:43;25.80;51.60
51908;DHT22;39320;53.214;6.556;2022-07-18T13:41:09;25.80;51.80
51908;DHT22;39320;53.214;6.556;2022-07-18T13:43:36;25.80;52.20
51908;DHT22;39320;53.214;6.556;2022-07-18T13:46:09;25.70;52.30
51908;DHT22;39320;53.214;6.556;2022-07-18T13:48:36;25.70;52.60
51908;DHT22;39320;53.214;6.556;2022-07-18T13:51:03;25.70;52.90
51908;DHT22;39320;53.214;6.556;2022-07-18T13:53:30;25.70;53.00
51908;DHT22;39320;53.214;6.556;2022-07-18T13:55:56;25.70;53.40
51908;DHT22;39320;53.214;6.556;2022-07-18T13:58:21;25.70;53.10
51908;DHT22;39320;53.214;6.556;2022-07-18T14:00:48;25.70;53.10
51908;DHT22;39320;53.214;6.556;2022-07-18T14:03:14;25.80;54.30
51908;DHT22;39320;53.214;6.556;2022-07-18T14:05:40;25.90;54.20
51908;DHT22;39320;53.214;6.556;2022-07-18T14:08:06;26.10;54.60
51908;DHT22;39320;53.214;6.556;2022-07-18T14:10:33;26.00;54.90
51908;DHT22;39320;53.214;6.556;2022-07-18T14:12:59;26.10;55.00
51908;DHT22;39320;53.214;6.556;2022-07-18T14:15:25;25.90;54.90
51908;DHT22;39320;53.214;6.556;2022-07-18T14:17:51;25.90;54.90
51908;DHT22;39320;53.214;6.556;2022-07-18T14:20:20;25.90;54.70
51908;DHT22;39320;53.214;6.556;2022-07-18T14:22:49;25.80;54.50
51908;DHT22;39320;53.214;6.556;2022-07-18T14:25:17;25.80;54.30
51908;DHT22;39320;53.214;6.556;2022-07-18T14:27:44;25.80;54.20
51908;DHT22;39320;53.214;6.556;2022-07-18T14:30:12;25.80;54.60
51908;DHT22;39320;53.214;6.556;2022-07-18T14:32:38;25.80;55.30
51908;DHT22;39320;53.214;6.556;2022-07-18T14:35:05;25.80;55.50
51908;DHT22;39320;53.214;6.556;2022-07-18T14:37:31;25.90;55.70
51908;DHT22;39320;53.214;6.556;2022-07-18T14:39:57;26.10;55.80
51908;DHT22;39320;53.214;6.556;2022-07-18T14:42:24;26.10;55.80
51908;DHT22;39320;53.214;6.556;2022-07-18T14:44:49;26.10;55.90
51908;DHT22;39320;53.214;6.556;2022-07-18T14:47:15;26.10;55.70
51908;DHT22;39320;53.214;6.556;2022-07-18T14:49:41;26.30;55.70
51908;DHT22;39320;53.214;6.556;2022-07-18T14:52:06;26.40;56.00
51908;DHT22;39320;53.214;6.556;2022-07-18T14:54:33;26.50;56.40
51908;DHT22;39320;53.214;6.556;2022-07-18T14:56:58;26.70;56.20
51908;DHT22;39320;53.214;6.556;2022-07-18T14:59:24;26.90;55.80
51908;DHT22;39320;53.214;6.556;2022-07-18T15:01:50;27.00;56.00
51908;DHT22;39320;53.214;6.556;2022-07-18T15:04:16;27.00;55.90
51908;DHT22;39320;53.214;6.556;2022-07-18T15:06:42;27.10;56.00
51908;DHT22;39320;53.214;6.556;2022-07-18T15:09:08;27.20;55.70
51908;DHT22;39320;53.214;6.556;2022-07-18T15:11:39;27.20;55.40
51908;DHT22;39320;53.214;6.556;2022-07-18T15:14:04;27.20;55.10
51908;DHT22;39320;53.214;6.556;2022-07-18T15:16:30;27.10;55.20
51908;DHT22;39320;53.214;6.556;2022-07-18T15:18:56;27.10;55.10
51908;DHT22;39320;53.214;6.556;2022-07-18T15:21:22;27.20;55.20
51908;DHT22;39320;53.214;6.556;2022-07-18T15:23:48;27.30;55.90
51908;DHT22;39320;53.214;6.556;2022-07-18T15:26:13;27.50;56.60
51908;DHT22;39320;53.214;6.556;2022-07-18T15:28:39;27.60;56.20
51908;DHT22;39320;53.214;6.556;2022-07-18T15:31:05;27.70;55.50
51908;DHT22;39320;53.214;6.556;2022-07-18T15:33:33;27.70;55.30
51908;DHT22;39320;53.214;6.556;2022-07-18T15:35:58;27.70;54.80
51908;DHT22;39320;53.214;6.556;2022-07-18T15:38:24;27.70;54.80
51908;DHT22;39320;53.214;6.556;2022-07-18T15:40:50;27.70;55.00
51908;DHT22;39320;53.214;6.556;2022-07-18T15:43:16;27.80;54.70
51908;DHT22;39320;53.214;6.556;2022-07-18T15:45:41;27.80;54.90
51908;DHT22;39320;53.214;6.556;2022-07-18T15:48:07;27.90;55.30
51908;DHT22;39320;53.214;6.556;2022-07-18T15:50:33;28.00;55.00
51908;DHT22;39320;53.214;6.556;2022-07-18T15:52:58;28.10;55.10
51908;DHT22;39320;53.214;6.556;2022-07-18T15:55:24;28.20;54.70
51908;DHT22;39320;53.214;6.556;2022-07-18T15:57:50;28.40;53.90
51908;DHT22;39320;53.214;6.556;2022-07-18T16:00:16;28.50;54.00
51908;DHT22;39320;53.214;6.556;2022-07-18T16:02:42;28.50;53.50
51908;DHT22;39320;53.214;6.556;2022-07-18T16:05:08;28.60;51.90
51908;DHT22;39320;53.214;6.556;2022-07-18T16:07:34;28.70;51.20
51908;DHT22;39320;53.214;6.556;2022-07-18T16:09:59;28.80;50.70
51908;DHT22;39320;53.214;6.556;2022-07-18T16:12:25;28.90;50.30
51908;DHT22;39320;53.214;6.556;2022-07-18T16:14:51;28.90;49.70
51908;DHT22;39320;53.214;6.556;2022-07-18T16:17:18;28.90;50.00
51908;DHT22;39320;53.214;6.556;2022-07-18T16:19:44;29.00;50.50
51908;DHT22;39320;53.214;6.556;2022-07-18T16:22:10;29.00;50.50
51908;DHT22;39320;53.214;6.556;2022-07-18T16:24:36;29.10;50.70
51908;DHT22;39320;53.214;6.556;2022-07-18T16:27:02;29.00;50.60
51908;DHT22;39320;53.214;6.556;2022-07-18T16:29:28;29.00;50.50
51908;DHT22;39320;53.214;6.556;2022-07-18T16:31:54;29.00;50.70